sensor_id;sensor_type;location;lat;lon;timestamp;temperature;humidity
72576;DHT22;60613;48.658;2.328;2022-12-18T07:02:38;19.80;22.90
72576;DHT22;60613;48.658;2.328;2022-12-18T07:05:04;19.70;23.60
72576;DHT22;60613;48.658;2.328;2022-12-18T07:07:30;19.80;23.60
72576;DHT22;60613;48.658;2.328;2022-12-18T07:09:56;19.80;23.40
72576;DHT22;60613;48.658;2.328;2022-12-18T07:12:21;19.90;23.50
72576;DHT22;60613;48.658;2.328;2022-12-18T07:14:47;19.90;23.30
72576;DHT22;60613;48.658;2.328;2022-12-18T07:17:12;20.00;23.30
72576;DHT22;60613;48.658;2.328;2022-12-18T07:19:38;19.90;23.20
72576;DHT22;60613;48.658;2.328;2022-12-18T07:22:04;20.00;23.20
72576;DHT22;60613;48.658;2.328;2022-12-18T07:24:29;20.00;23.00
72576;DHT22;60613;48.658;2.328;2022-12-18T07:26:55;20.00;23.00
72576;DHT22;60613;48.658;2.328;2022-12-18T07:29:21;20.10;22.90
72576;DHT22;60613;48.658;2.328;2022-12-18T07:31:46;20.10;22.90
72576;DHT22;60613;48.658;2.328;2022-12-18T07:34:13;20.10;22.80
72576;DHT22;60613;48.658;2.328;2022-12-18T07:36:39;20.10;22.80
72576;DHT22;60613;48.658;2.328;2022-12-18T07:39:04;20.10;22.90
72576;DHT22;60613;48.658;2.328;2022-12-18T07:41:30;20.10;22.70
72576;DHT22;60613;48.658;2.328;2022-12-18T07:43:56;20.10;22.70
72576;DHT22;60613;48.658;2.328;2022-12-18T07:46:21;20.10;22.80
72576;DHT22;60613;48.658;2.328;2022-12-18T07:48:47;20.10;22.70
72576;DHT22;60613;48.658;2.328;2022-12-18T07:51:13;20.10;22.50
72576;DHT22;60613;48.658;2.328;2022-12-18T07:53:40;20.20;23.60
72576;DHT22;60613;48.658;2.328;2022-12-18T07:56:09;19.10;19.60
72576;DHT22;60613;48.658;2.328;2022-12-18T07:58:36;17.90;20.30
72576;DHT22;60613;48.658;2.328;2022-12-18T08:01:05;17.00;21.00
72576;DHT22;60613;48.658;2.328;2022-12-18T08:03:31;16.30;22.00
72576;DHT22;60613;48.658;2.328;2022-12-18T08:06:04;15.80;22.50
72576;DHT22;60613;48.658;2.328;2022-12-18T08:08:32;15.30;23.10
72576;DHT22;60613;48.658;2.328;2022-12-18T08:10:58;14.90;23.50
72576;DHT22;60613;48.658;2.328;2022-12-18T08:13:24;14.70;24.90
72576;DHT22;60613;48.658;2.328;2022-12-18T08:16:04;15.30;25.50
72576;DHT22;60613;48.658;2.328;2022-12-18T08:18:32;15.90;25.30
72576;DHT22;60613;48.658;2.328;2022-12-18T08:21:02;16.30;24.80
72576;DHT22;60613;48.658;2.328;2022-12-18T08:23:32;16.60;24.50
72576;DHT22;60613;48.658;2.328;2022-12-18T08:25:58;16.90;25.00
72576;DHT22;60613;48.658;2.328;2022-12-18T08:28:23;17.10;24.30
72576;DHT22;60613;48.658;2.328;2022-12-18T08:33:24;17.50;24.20
72576;DHT22;60613;48.658;2.328;2022-12-18T08:35:50;17.50;24.20
72576;DHT22;60613;48.658;2.328;2022-12-18T08:38:16;17.60;24.40
72576;DHT22;60613;48.658;2.328;2022-12-18T08:40:41;17.70;24.80
72576;DHT22;60613;48.658;2.328;2022-12-18T08:43:09;17.80;24.30
72576;DHT22;60613;48.658;2.328;2022-12-18T08:45:54;17.90;24.10
72576;DHT22;60613;48.658;2.328;2022-12-18T08:48:19;18.00;24.00
72576;DHT22;60613;48.658;2.328;2022-12-18T08:50:54;18.00;23.90
72576;DHT22;60613;48.658;2.328;2022-12-18T08:53:20;18.10;24.10
72576;DHT22;60613;48.658;2.328;2022-12-18T08:55:46;18.20;24.00
72576;DHT22;60613;48.658;2.328;2022-12-18T08:58:11;18.20;24.20
72576;DHT22;60613;48.658;2.328;2022-12-18T09:00:37;18.30;24.10
72576;DHT22;60613;48.658;2.328;2022-12-18T09:03:02;18.30;24.20
72576;DHT22;60613;48.658;2.328;2022-12-18T09:05:28;18.40;24.80
72576;DHT22;60613;48.658;2.328;2022-12-18T09:07:54;18.40;23.70
72576;DHT22;60613;48.658;2.328;2022-12-18T09:10:19;18.40;23.70
72576;DHT22;60613;48.658;2.328;2022-12-18T09:12:45;18.40;23.90
72576;DHT22;60613;48.658;2.328;2022-12-18T09:15:10;18.50;24.50
72576;DHT22;60613;48.658;2.328;2022-12-18T09:17:36;18.60;24.60
72576;DHT22;60613;48.658;2.328;2022-12-18T09:20:02;18.60;24.30
72576;DHT22;60613;48.658;2.328;2022-12-18T09:22:28;18.70;25.30
72576;DHT22;60613;48.658;2.328;2022-12-18T09:24:54;18.70;25.30
72576;DHT22;60613;48.658;2.328;2022-12-18T09:27:19;18.80;25.30
72576;DHT22;60613;48.658;2.328;2022-12-18T09:29:45;18.80;25.70
72576;DHT22;60613;48.658;2.328;2022-12-18T09:32:10;18.90;25.50
72576;DHT22;60613;48.658;2.328;2022-12-18T09:34:36;18.90;25.40
72576;DHT22;60613;48.658;2.328;2022-12-18T09:37:02;18.90;25.30
72576;DHT22;60613;48.658;2.328;2022-12-18T09:39:27;18.90;25.40
72576;DHT22;60613;48.658;2.328;2022-12-18T09:41:55;18.90;25.50
72576;DHT22;60613;48.658;2.328;2022-12-18T09:44:34;18.90;25.50
72576;DHT22;60613;48.658;2.328;2022-12-18T09:47:25;19.00;25.60
72576;DHT22;60613;48.658;2.328;2022-12-18T09:49:58;19.10;26.40
72576;DHT22;60613;48.658;2.328;2022-12-18T09:52:32;19.20;26.50
72576;DHT22;60613;48.658;2.328;2022-12-18T09:55:11;19.20;26.50
72576;DHT22;60613;48.658;2.328;2022-12-18T09:57:45;19.20;26.40
72576;DHT22;60613;48.658;2.328;2022-12-18T10:00:19;19.20;26.50
72576;DHT22;60613;48.658;2.328;2022-12-18T10:02:45;19.20;26.80
72576;DHT22;60613;48.658;2.328;2022-12-18T10:05:17;19.20;26.90
72576;DHT22;60613;48.658;2.328;2022-12-18T10:10:27;19.40;27.00
72576;DHT22;60613;48.658;2.328;2022-12-18T10:16:17;19.50;26.10
72576;DHT22;60613;48.658;2.328;2022-12-18T10:19:00;19.60;26.00
72576;DHT22;60613;48.658;2.328;2022-12-18T10:21:49;19.60;25.70
72576;DHT22;60613;48.658;2.328;2022-12-18T10:26:48;19.70;25.60
72576;DHT22;60613;48.658;2.328;2022-12-18T10:29:15;19.70;25.60
72576;DHT22;60613;48.658;2.328;2022-12-18T10:31:41;19.70;25.40
72576;DHT22;60613;48.658;2.328;2022-12-18T10:34:11;19.80;25.70
72576;DHT22;60613;48.658;2.328;2022-12-18T10:36:37;19.80;25.70
72576;DHT22;60613;48.658;2.328;2022-12-18T10:39:24;19.80;26.10
72576;DHT22;60613;48.658;2.328;2022-12-18T10:41:51;19.80;25.40
72576;DHT22;60613;48.658;2.328;2022-12-18T10:44:19;19.80;25.60
72576;DHT22;60613;48.658;2.328;2022-12-18T10:46:50;19.80;25.60
72576;DHT22;60613;48.658;2.328;2022-12-18T10:49:35;19.80;26.00
72576;DHT22;60613;48.658;2.328;2022-12-18T10:52:18;19.90;26.30
72576;DHT22;60613;48.658;2.328;2022-12-18T10:55:12;19.90;27.20
72576;DHT22;60613;48.658;2.328;2022-12-18T10:57:41;19.90;27.30
72576;DHT22;60613;48.658;2.328;2022-12-18T11:00:28;20.00;27.30
72576;DHT22;60613;48.658;2.328;2022-12-18T11:02:55;20.00;27.60
72576;DHT22;60613;48.658;2.328;2022-12-18T11:05:33;20.10;28.70
72576;DHT22;60613;48.658;2.328;2022-12-18T11:07:59;20.20;28.50
72576;DHT22;60613;48.658;2.328;2022-12-18T11:10:30;20.30;29.00
72576;DHT22;60613;48.658;2.328;2022-12-18T11:12:57;20.40;29.00
72576;DHT22;60613;48.658;2.328;2022-12-18T11:15:34;20.50;29.90
72576;DHT22;60613;48.658;2.328;2022-12-18T11:17:59;20.50;29.00
72576;DHT22;60613;48.658;2.328;2022-12-18T11:20:32;20.50;29.20
72576;DHT22;60613;48.658;2.328;2022-12-18T11:23:04;20.50;29.80
72576;DHT22;60613;48.658;2.328;2022-12-18T11:25:36;20.50;29.20
72576;DHT22;60613;48.658;2.328;2022-12-18T11:28:03;20.50;29.80
72576;DHT22;60613;48.658;2.328;2022-12-18T11:30:31;20.40;29.80
72576;DHT22;60613;48.658;2.328;2022-12-18T11:33:08;20.50;29.30
72576;DHT22;60613;48.658;2.328;2022-12-18T11:35:51;20.60;29.20
72576;DHT22;60613;48.658;2.328;2022-12-18T11:38:22;20.60;29.20
72576;DHT22;60613;48.658;2.328;2022-12-18T11:40:58;20.60;29.60
72576;DHT22;60613;48.658;2.328;2022-12-18T11:46:13;20.70;29.90
72576;DHT22;60613;48.658;2.328;2022-12-18T11:49:25;20.70;30.10
72576;DHT22;60613;48.658;2.328;2022-12-18T11:54:45;20.90;30.70
72576;DHT22;60613;48.658;2.328;2022-12-18T12:02:52;20.90;32.00
72576;DHT22;60613;48.658;2.328;2022-12-18T12:05:45;20.80;30.30
72576;DHT22;60613;48.658;2.328;2022-12-18T12:11:01;20.70;29.90
72576;DHT22;60613;48.658;2.328;2022-12-18T12:21:17;20.70;31.60
72576;DHT22;60613;48.658;2.328;2022-12-18T12:23:47;20.70;31.70
72576;DHT22;60613;48.658;2.328;2022-12-18T12:27:13;20.70;31.60
72576;DHT22;60613;48.658;2.328;2022-12-18T12:38:31;20.70;30.30
72576;DHT22;60613;48.658;2.328;2022-12-18T12:41:08;20.70;30.00
72576;DHT22;60613;48.658;2.328;2022-12-18T12:43:58;20.80;29.90
72576;DHT22;60613;48.658;2.328;2022-12-18T12:46:25;20.80;29.80
72576;DHT22;60613;48.658;2.328;2022-12-18T12:49:00;20.80;29.70
72576;DHT22;60613;48.658;2.328;2022-12-18T12:51:35;20.90;29.30
72576;DHT22;60613;48.658;2.328;2022-12-18T12:54:05;20.90;29.30
72576;DHT22;60613;48.658;2.328;2022-12-18T12:57:05;20.90;29.30
72576;DHT22;60613;48.658;2.328;2022-12-18T13:05:51;21.10;28.80
72576;DHT22;60613;48.658;2.328;2022-12-18T13:08:28;21.00;28.40
72576;DHT22;60613;48.658;2.328;2022-12-18T13:10:54;21.00;28.80
72576;DHT22;60613;48.658;2.328;2022-12-18T13:13:53;21.10;28.50
72576;DHT22;60613;48.658;2.328;2022-12-18T13:16:23;21.10;28.10
72576;DHT22;60613;48.658;2.328;2022-12-18T13:18:51;21.10;28.00
72576;DHT22;60613;48.658;2.328;2022-12-18T13:21:31;21.10;27.90
72576;DHT22;60613;48.658;2.328;2022-12-18T13:24:15;21.20;27.90
72576;DHT22;60613;48.658;2.328;2022-12-18T13:26:45;21.20;27.50
72576;DHT22;60613;48.658;2.328;2022-12-18T13:29:11;21.30;27.70
72576;DHT22;60613;48.658;2.328;2022-12-18T13:34:17;21.40;27.60
72576;DHT22;60613;48.658;2.328;2022-12-18T13:36:47;21.50;27.60
72576;DHT22;60613;48.658;2.328;2022-12-18T13:41:45;21.60;27.10
72576;DHT22;60613;48.658;2.328;2022-12-18T13:46:48;21.70;26.60
72576;DHT22;60613;48.658;2.328;2022-12-18T13:49:22;21.70;26.50
72576;DHT22;60613;48.658;2.328;2022-12-18T13:51:51;21.80;26.60
72576;DHT22;60613;48.658;2.328;2022-12-18T13:54:35;21.80;27.00
72576;DHT22;60613;48.658;2.328;2022-12-18T13:57:03;21.90;26.10
72576;DHT22;60613;48.658;2.328;2022-12-18T13:59:37;21.90;26.40
72576;DHT22;60613;48.658;2.328;2022-12-18T14:02:16;21.90;26.30
72576;DHT22;60613;48.658;2.328;2022-12-18T14:04:45;21.90;25.90
72576;DHT22;60613;48.658;2.328;2022-12-18T14:07:18;22.00;25.90
72576;DHT22;60613;48.658;2.328;2022-12-18T14:09:55;21.90;26.10
72576;DHT22;60613;48.658;2.328;2022-12-18T14:12:28;21.90;25.90
72576;DHT22;60613;48.658;2.328;2022-12-18T14:17:57;21.90;25.70
72576;DHT22;60613;48.658;2.328;2022-12-18T14:20:25;21.90;25.90
72576;DHT22;60613;48.658;2.328;2022-12-18T14:22:51;21.90;25.60
72576;DHT22;60613;48.658;2.328;2022-12-18T14:25:20;22.00;26.10
72576;DHT22;60613;48.658;2.328;2022-12-18T14:28:08;22.00;26.40
72576;DHT22;60613;48.658;2.328;2022-12-18T14:30:38;22.10;26.50
72576;DHT22;60613;48.658;2.328;2022-12-18T14:35:39;22.10;26.60
72576;DHT22;60613;48.658;2.328;2022-12-18T14:38:23;22.10;26.60
72576;DHT22;60613;48.658;2.328;2022-12-18T14:41:03;22.10;26.30
72576;DHT22;60613;48.658;2.328;2022-12-18T14:43:33;22.20;26.50
72576;DHT22;60613;48.658;2.328;2022-12-18T14:45:59;22.20;26.50
72576;DHT22;60613;48.658;2.328;2022-12-18T14:53:44;22.00;25.70
72576;DHT22;60613;48.658;2.328;2022-12-18T14:56:28;22.00;25.70
72576;DHT22;60613;48.658;2.328;2022-12-18T14:59:03;21.90;25.60
72576;DHT22;60613;48.658;2.328;2022-12-18T15:01:37;21.90;25.70
72576;DHT22;60613;48.658;2.328;2022-12-18T15:04:04;21.80;25.80
72576;DHT22;60613;48.658;2.328;2022-12-18T15:06:36;21.80;25.70
72576;DHT22;60613;48.658;2.328;2022-12-18T15:09:23;21.80;25.80
72576;DHT22;60613;48.658;2.328;2022-12-18T15:11:58;21.80;25.80
72576;DHT22;60613;48.658;2.328;2022-12-18T15:14:41;21.80;25.70
72576;DHT22;60613;48.658;2.328;2022-12-18T15:17:19;21.70;25.60
72576;DHT22;60613;48.658;2.328;2022-12-18T15:19:47;21.70;25.60
72576;DHT22;60613;48.658;2.328;2022-12-18T15:22:31;21.70;25.80
72576;DHT22;60613;48.658;2.328;2022-12-18T15:24:58;21.70;25.70
72576;DHT22;60613;48.658;2.328;2022-12-18T15:27:30;21.60;25.60
72576;DHT22;60613;48.658;2.328;2022-12-18T15:32:38;21.60;25.60
72576;DHT22;60613;48.658;2.328;2022-12-18T15:37:33;21.60;25.50
72576;DHT22;60613;48.658;2.328;2022-12-18T15:39:58;21.60;25.60
72576;DHT22;60613;48.658;2.328;2022-12-18T15:42:24;21.60;25.50
72576;DHT22;60613;48.658;2.328;2022-12-18T15:45:12;21.50;26.00
72576;DHT22;60613;48.658;2.328;2022-12-18T15:47:38;21.50;26.20
72576;DHT22;60613;48.658;2.328;2022-12-18T15:50:04;21.50;25.80
72576;DHT22;60613;48.658;2.328;2022-12-18T15:52:41;21.50;25.50
72576;DHT22;60613;48.658;2.328;2022-12-18T15:55:14;21.50;25.40
72576;DHT22;60613;48.658;2.328;2022-12-18T15:57:59;21.50;25.40
72576;DHT22;60613;48.658;2.328;2022-12-18T16:00:25;21.50;25.40
72576;DHT22;60613;48.658;2.328;2022-12-18T16:02:50;21.50;25.40
72576;DHT22;60613;48.658;2.328;2022-12-18T16:05:18;21.50;25.40
72576;DHT22;60613;48.658;2.328;2022-12-18T16:07:44;21.50;25.70
72576;DHT22;60613;48.658;2.328;2022-12-18T16:10:10;21.50;26.10
72576;DHT22;60613;48.658;2.328;2022-12-18T16:12:36;21.50;26.30
72576;DHT22;60613;48.658;2.328;2022-12-18T16:15:02;21.60;26.10
72576;DHT22;60613;48.658;2.328;2022-12-18T16:17:28;21.50;26.30
72576;DHT22;60613;48.658;2.328;2022-12-18T16:19:53;21.50;26.30
72576;DHT22;60613;48.658;2.328;2022-12-18T16:22:27;21.50;26.30
72576;DHT22;60613;48.658;2.328;2022-12-18T16:24:54;21.50;26.50
72576;DHT22;60613;48.658;2.328;2022-12-18T16:27:21;21.50;26.30
72576;DHT22;60613;48.658;2.328;2022-12-18T16:29:47;21.50;27.60
72576;DHT22;60613;48.658;2.328;2022-12-18T16:32:18;21.50;26.60
72576;DHT22;60613;48.658;2.328;2022-12-18T16:34:45;21.50;26.50
72576;DHT22;60613;48.658;2.328;2022-12-18T16:37:12;21.50;26.40
72576;DHT22;60613;48.658;2.328;2022-12-18T16:39:39;21.40;26.30
72576;DHT22;60613;48.658;2.328;2022-12-18T16:42:15;21.40;27.10
72576;DHT22;60613;48.658;2.328;2022-12-18T16:44:43;21.40;27.00
72576;DHT22;60613;48.658;2.328;2022-12-18T16:47:09;21.40;26.10
72576;DHT22;60613;48.658;2.328;2022-12-18T16:49:34;21.40;26.00
72576;DHT22;60613;48.658;2.328;2022-12-18T16:52:00;21.40;25.90
72576;DHT22;60613;48.658;2.328;2022-12-18T16:54:26;21.40;26.10
72576;DHT22;60613;48.658;2.328;2022-12-18T16:56:55;21.40;25.80
72576;DHT22;60613;48.658;2.328;2022-12-18T16:59:21;21.40;25.70
72576;DHT22;60613;48.658;2.328;2022-12-18T17:01:47;21.40;25.70
72576;DHT22;60613;48.658;2.328;2022-12-18T17:04:13;21.40;25.60
72576;DHT22;60613;48.658;2.328;2022-12-18T17:06:41;21.40;25.70
72576;DHT22;60613;48.658;2.328;2022-12-18T17:09:10;21.40;25.60
72576;DHT22;60613;48.658;2.328;2022-12-18T17:11:36;21.40;25.60
72576;DHT22;60613;48.658;2.328;2022-12-18T17:14:07;21.40;25.60
72576;DHT22;60613;48.658;2.328;2022-12-18T17:16:33;21.40;25.60
72576;DHT22;60613;48.658;2.328;2022-12-18T17:19:00;21.40;25.50
72576;DHT22;60613;48.658;2.328;2022-12-18T17:21:26;21.40;25.50
72576;DHT22;60613;48.658;2.328;2022-12-18T17:23:51;21.40;25.40
72576;DHT22;60613;48.658;2.328;2022-12-18T17:26:17;21.50;25.40
72576;DHT22;60613;48.658;2.328;2022-12-18T17:28:42;21.50;25.40
72576;DHT22;60613;48.658;2.328;2022-12-18T17:31:12;21.50;25.50
72576;DHT22;60613;48.658;2.328;2022-12-18T17:33:38;21.50;25.40
72576;DHT22;60613;48.658;2.328;2022-12-18T17:36:05;21.50;25.50
72576;DHT22;60613;48.658;2.328;2022-12-18T17:38:30;21.50;25.40
72576;DHT22;60613;48.658;2.328;2022-12-18T17:41:01;21.50;25.40
72576;DHT22;60613;48.658;2.328;2022-12-18T17:43:26;21.50;25.30
72576;DHT22;60613;48.658;2.328;2022-12-18T17:45:52;21.50;25.30
72576;DHT22;60613;48.658;2.328;2022-12-18T17:48:18;21.50;25.30
72576;DHT22;60613;48.658;2.328;2022-12-18T17:50:43;21.50;25.30
72576;DHT22;60613;48.658;2.328;2022-12-18T17:53:10;21.50;25.40
72576;DHT22;60613;48.658;2.328;2022-12-18T17:55:36;21.50;25.40
72576;DHT22;60613;48.658;2.328;2022-12-18T17:58:01;21.50;25.70
72576;DHT22;60613;48.658;2.328;2022-12-18T18:00:27;21.50;26.00
72576;DHT22;60613;48.658;2.328;2022-12-18T18:02:53;21.40;25.90
72576;DHT22;60613;48.658;2.328;2022-12-18T18:05:19;21.50;25.80
72576;DHT22;60613;48.658;2.328;2022-12-18T18:07:45;21.50;26.40
72576;DHT22;60613;48.658;2.328;2022-12-18T18:10:11;21.50;25.80
72576;DHT22;60613;48.658;2.328;2022-12-18T18:12:37;21.50;25.50
72576;DHT22;60613;48.658;2.328;2022-12-18T18:15:21;21.50;26.50
72576;DHT22;60613;48.658;2.328;2022-12-18T18:17:47;21.50;25.60
72576;DHT22;60613;48.658;2.328;2022-12-18T18:20:15;21.50;25.90
72576;DHT22;60613;48.658;2.328;2022-12-18T18:22:41;21.40;25.90
72576;DHT22;60613;48.658;2.328;2022-12-18T18:25:07;21.40;25.90
72576;DHT22;60613;48.658;2.328;2022-12-18T18:27:33;21.40;25.90
72576;DHT22;60613;48.658;2.328;2022-12-18T18:29:59;21.50;26.00
72576;DHT22;60613;48.658;2.328;2022-12-18T18:32:25;21.50;25.70
72576;DHT22;60613;48.658;2.328;2022-12-18T18:34:50;21.50;25.80
72576;DHT22;60613;48.658;2.328;2022-12-18T18:37:16;21.50;25.80
72576;DHT22;60613;48.658;2.328;2022-12-18T18:39:42;21.50;25.80
72576;DHT22;60613;48.658;2.328;2022-12-18T18:42:07;21.50;25.70
72576;DHT22;60613;48.658;2.328;2022-12-18T18:44:33;21.40;25.70
72576;DHT22;60613;48.658;2.328;2022-12-18T18:47:00;21.50;25.80
72576;DHT22;60613;48.658;2.328;2022-12-18T18:49:26;21.50;25.80
72576;DHT22;60613;48.658;2.328;2022-12-18T18:51:56;21.50;25.80
72576;DHT22;60613;48.658;2.328;2022-12-18T18:54:22;21.50;25.80
72576;DHT22;60613;48.658;2.328;2022-12-18T18:56:48;21.50;25.90
72576;DHT22;60613;48.658;2.328;2022-12-18T18:59:15;21.50;25.90
72576;DHT22;60613;48.658;2.328;2022-12-18T19:01:41;21.50;25.80
72576;DHT22;60613;48.658;2.328;2022-12-18T19:04:06;21.50;25.90
72576;DHT22;60613;48.658;2.328;2022-12-18T19:06:32;21.50;25.90
72576;DHT22;60613;48.658;2.328;2022-12-18T19:08:59;21.50;25.80
72576;DHT22;60613;48.658;2.328;2022-12-18T19:11:25;21.50;25.90
72576;DHT22;60613;48.658;2.328;2022-12-18T19:14:11;21.50;25.90
72576;DHT22;60613;48.658;2.328;2022-12-18T19:16:38;21.50;25.90
72576;DHT22;60613;48.658;2.328;2022-12-18T19:19:04;21.50;25.80
72576;DHT22;60613;48.658;2.328;2022-12-18T19:21:29;21.50;26.00
72576;DHT22;60613;48.658;2.328;2022-12-18T19:23:57;21.50;27.00
72576;DHT22;60613;48.658;2.328;2022-12-18T19:26:23;21.50;26.10
72576;DHT22;60613;48.658;2.328;2022-12-18T19:28:48;21.50;26.10
72576;DHT22;60613;48.658;2.328;2022-12-18T19:31:15;21.60;26.00
72576;DHT22;60613;48.658;2.328;2022-12-18T19:33:43;21.60;26.20
72576;DHT22;60613;48.658;2.328;2022-12-18T19:36:14;21.60;25.90
72576;DHT22;60613;48.658;2.328;2022-12-18T19:38:40;21.70;25.90
72576;DHT22;60613;48.658;2.328;2022-12-18T19:41:07;21.70;25.90
72576;DHT22;60613;48.658;2.328;2022-12-18T19:43:37;21.70;25.80
72576;DHT22;60613;48.658;2.328;2022-12-18T19:46:04;21.70;25.80
72576;DHT22;60613;48.658;2.328;2022-12-18T19:48:31;21.70;25.80
72576;DHT22;60613;48.658;2.328;2022-12-18T19:50:57;21.70;25.90
72576;DHT22;60613;48.658;2.328;2022-12-18T19:53:23;21.60;25.90
72576;DHT22;60613;48.658;2.328;2022-12-18T19:55:48;21.60;25.90
72576;DHT22;60613;48.658;2.328;2022-12-18T19:58:14;21.60;25.80
72576;DHT22;60613;48.658;2.328;2022-12-18T20:00:39;21.70;26.00
72576;DHT22;60613;48.658;2.328;2022-12-18T20:03:05;21.60;25.80
72576;DHT22;60613;48.658;2.328;2022-12-18T20:05:31;21.70;25.80
72576;DHT22;60613;48.658;2.328;2022-12-18T20:07:57;21.70;25.60
72576;DHT22;60613;48.658;2.328;2022-12-18T20:10:22;21.70;26.60
72576;DHT22;60613;48.658;2.328;2022-12-18T20:12:48;21.70;25.60
72576;DHT22;60613;48.658;2.328;2022-12-18T20:15:13;21.70;25.60
72576;DHT22;60613;48.658;2.328;2022-12-18T20:17:39;21.70;25.60
72576;DHT22;60613;48.658;2.328;2022-12-18T20:20:05;21.70;25.60
72576;DHT22;60613;48.658;2.328;2022-12-18T20:22:31;21.70;25.70
72576;DHT22;60613;48.658;2.328;2022-12-18T20:24:57;21.70;25.70
72576;DHT22;60613;48.658;2.328;2022-12-18T20:27:23;21.70;25.70
72576;DHT22;60613;48.658;2.328;2022-12-18T20:29:48;21.70;25.70
72576;DHT22;60613;48.658;2.328;2022-12-18T20:32:14;21.70;25.80
72576;DHT22;60613;48.658;2.328;2022-12-18T20:34:40;21.70;25.70
72576;DHT22;60613;48.658;2.328;2022-12-18T20:37:06;21.70;25.70
72576;DHT22;60613;48.658;2.328;2022-12-18T20:39:31;21.70;25.90
72576;DHT22;60613;48.658;2.328;2022-12-18T20:41:57;21.70;25.90
72576;DHT22;60613;48.658;2.328;2022-12-18T20:44:23;21.70;25.70
72576;DHT22;60613;48.658;2.328;2022-12-18T20:46:56;21.70;25.80
72576;DHT22;60613;48.658;2.328;2022-12-18T20:49:23;21.70;25.70
72576;DHT22;60613;48.658;2.328;2022-12-18T20:51:50;21.70;25.80
72576;DHT22;60613;48.658;2.328;2022-12-18T20:54:18;21.70;25.70
72576;DHT22;60613;48.658;2.328;2022-12-18T20:56:43;21.70;25.70
72576;DHT22;60613;48.658;2.328;2022-12-18T20:59:09;21.70;25.50
72576;DHT22;60613;48.658;2.328;2022-12-18T21:01:35;21.70;25.50
72576;DHT22;60613;48.658;2.328;2022-12-18T21:04:03;21.70;25.70
72576;DHT22;60613;48.658;2.328;2022-12-18T21:06:29;21.70;25.70
72576;DHT22;60613;48.658;2.328;2022-12-18T21:08:54;21.60;25.90
72576;DHT22;60613;48.658;2.328;2022-12-18T21:14:08;21.80;25.80
72576;DHT22;60613;48.658;2.328;2022-12-18T21:16:34;21.80;25.80
72576;DHT22;60613;48.658;2.328;2022-12-18T21:19:00;21.80;25.70
72576;DHT22;60613;48.658;2.328;2022-12-18T21:21:26;21.80;25.50
72576;DHT22;60613;48.658;2.328;2022-12-18T21:23:51;21.90;25.50
72576;DHT22;60613;48.658;2.328;2022-12-18T21:26:25;21.80;25.50
72576;DHT22;60613;48.658;2.328;2022-12-18T21:28:55;21.90;25.50
72576;DHT22;60613;48.658;2.328;2022-12-18T21:31:23;21.90;25.40
72576;DHT22;60613;48.658;2.328;2022-12-18T21:33:50;21.90;25.40
72576;DHT22;60613;48.658;2.328;2022-12-18T21:36:15;21.90;25.50
72576;DHT22;60613;48.658;2.328;2022-12-18T21:38:41;21.90;25.50
72576;DHT22;60613;48.658;2.328;2022-12-18T21:41:08;21.90;25.60
72576;DHT22;60613;48.658;2.328;2022-12-18T21:43:37;21.90;25.60
72576;DHT22;60613;48.658;2.328;2022-12-18T21:46:21;21.80;25.50
72576;DHT22;60613;48.658;2.328;2022-12-18T21:48:46;21.90;25.60
72576;DHT22;60613;48.658;2.328;2022-12-18T21:51:12;21.80;25.60
72576;DHT22;60613;48.658;2.328;2022-12-18T21:53:38;21.80;25.70
72576;DHT22;60613;48.658;2.328;2022-12-18T21:56:03;21.80;25.60
72576;DHT22;60613;48.658;2.328;2022-12-18T21:58:30;21.80;25.70
